createdAt,value
2022-08-28T00:03:22.741Z,71.17
2022-08-28T00:08:43.522Z,71.25
2022-08-28T00:14:06.817Z,71.70
2022-08-28T00:19:28.748Z,71.60
2022-08-28T00:24:49.594Z,71.58
2022-08-28T00:30:10.568Z,71.86
2022-08-28T00:35:31.832Z,72.08
2022-08-28T00:40:56.538Z,71.93
2022-08-28T00:46:20.886Z,71.59
2022-08-28T00:52:00.923Z,71.50
2022-08-28T00:57:27.006Z,71.35
2022-08-28T01:02:48.043Z,71.88
2022-08-28T01:08:09.433Z,72.20
2022-08-28T01:13:32.960Z,71.67
2022-08-28T01:18:55.052Z,72.18
2022-08-28T01:24:18.602Z,72.08
2022-08-28T01:29:39.727Z,71.97
2022-08-28T01:35:01.235Z,72.16
2022-08-28T01:40:36.529Z,72.12
2022-08-28T01:46:04.381Z,72.10
2022-08-28T01:51:24.913Z,72.13
2022-08-28T01:56:46.067Z,72.01
2022-08-28T02:02:07.100Z,72.37
2022-08-28T02:07:28.258Z,72.43
2022-08-28T02:12:49.432Z,72.21
2022-08-28T02:18:11.046Z,72.11
2022-08-28T02:23:32.199Z,71.88
2022-08-28T02:28:53.361Z,71.88
2022-08-28T02:34:14.316Z,72.02
2022-08-28T02:39:35.014Z,72.03
2022-08-28T02:44:56.006Z,72.27
2022-08-28T02:50:18.947Z,72.40
2022-08-28T02:55:39.982Z,72.09
2022-08-28T03:01:03.503Z,72.58
2022-08-28T03:06:24.396Z,72.45
2022-08-28T03:11:45.369Z,72.83
2022-08-28T03:17:07.557Z,72.33
2022-08-28T03:22:51.433Z,72.58
2022-08-28T03:28:12.696Z,72.61
2022-08-28T03:33:34.053Z,72.54
2022-08-28T03:38:58.918Z,72.37
2022-08-28T03:44:19.829Z,72.62
2022-08-28T03:49:40.503Z,72.32
2022-08-28T03:55:01.299Z,72.51
2022-08-28T04:00:22.114Z,72.50
2022-08-28T04:05:44.611Z,72.98
2022-08-28T04:11:06.109Z,72.19
2022-08-28T04:16:27.974Z,72.71
2022-08-28T04:21:48.584Z,72.67
2022-08-28T04:27:09.266Z,72.75
2022-08-28T04:32:30.119Z,72.57
2022-08-28T04:37:50.691Z,72.20
2022-08-28T04:43:12.321Z,72.58
2022-08-28T04:48:33.992Z,72.66
2022-08-28T04:53:54.534Z,72.56
2022-08-28T04:59:15.166Z,72.81
2022-08-28T05:04:35.959Z,72.61
2022-08-28T05:09:57.784Z,72.51
2022-08-28T05:15:18.456Z,72.58
2022-08-28T05:20:41.932Z,72.67
2022-08-28T05:26:03.005Z,72.79
2022-08-28T05:31:25.266Z,73.13
2022-08-28T05:36:46.037Z,72.79
2022-08-28T05:42:07.136Z,73.00
2022-08-28T05:47:28.659Z,72.76
2022-08-28T05:52:49.910Z,72.88
2022-08-28T05:58:29.271Z,72.44
2022-08-28T06:04:02.872Z,72.83
2022-08-28T06:09:29.648Z,72.71
2022-08-28T06:14:50.806Z,73.09
2022-08-28T06:20:11.832Z,73.17
2022-08-28T06:25:38.040Z,73.00
2022-08-28T06:31:23.015Z,73.40
2022-08-28T06:36:43.338Z,73.15
2022-08-28T06:42:05.731Z,73.03
2022-08-28T06:47:27.844Z,73.18
2022-08-28T06:52:48.591Z,73.25
2022-08-28T06:58:10.143Z,73.35
2022-08-28T07:03:30.889Z,73.19
2022-08-28T07:08:52.116Z,73.03
2022-08-28T07:14:13.384Z,73.29
2022-08-28T07:19:34.326Z,73.10
2022-08-28T07:24:56.360Z,72.86
2022-08-28T07:30:17.357Z,73.00
2022-08-28T07:35:38.042Z,73.00
2022-08-28T07:40:58.913Z,72.57
2022-08-28T07:46:20.037Z,72.77
2022-08-28T07:51:40.761Z,72.77
2022-08-28T07:57:05.618Z,72.63
2022-08-28T08:02:26.871Z,72.75
2022-08-28T08:07:47.513Z,72.70
2022-08-28T08:13:08.394Z,72.78
2022-08-28T08:18:29.772Z,72.64
2022-08-28T08:23:50.630Z,72.23
2022-08-28T08:29:13.247Z,72.24
2022-08-28T08:34:43.083Z,72.48
2022-08-28T08:40:07.596Z,72.63
2022-08-28T08:45:32.058Z,72.43
2022-08-28T08:50:53.905Z,72.42
2022-08-28T08:56:17.101Z,72.37
2022-08-28T09:01:47.887Z,72.12
2022-08-28T09:07:27.518Z,71.89
2022-08-28T09:13:12.464Z,72.02
2022-08-28T09:18:34.690Z,71.94
2022-08-28T09:23:58.217Z,72.16
2022-08-28T09:29:24.817Z,72.45
2022-08-28T09:35:02.174Z,71.69
2022-08-28T09:40:27.596Z,71.84
2022-08-28T09:45:56.167Z,71.81
2022-08-28T09:51:20.291Z,71.30
2022-08-28T09:56:42.414Z,71.41
2022-08-28T10:02:38.555Z,71.43
2022-08-28T10:08:06.578Z,71.80
2022-08-28T10:13:35.662Z,71.60
2022-08-28T10:19:01.064Z,71.75
2022-08-28T10:24:29.392Z,71.67
2022-08-28T10:29:53.341Z,71.58
2022-08-28T10:35:42.658Z,71.24
2022-08-28T10:41:19.831Z,71.18
2022-08-28T10:46:44.979Z,71.15
2022-08-28T10:52:11.231Z,70.90
2022-08-28T10:57:57.728Z,71.38
2022-08-28T11:03:34.469Z,70.76
2022-08-28T11:08:58.911Z,71.07
2022-08-28T11:14:48.037Z,70.63
2022-08-28T11:20:29.504Z,70.65
2022-08-28T11:25:58.511Z,70.31
2022-08-28T11:31:29.112Z,70.23
2022-08-28T11:36:50.084Z,70.00
2022-08-28T11:42:10.703Z,70.19
2022-08-28T11:47:41.856Z,70.06
2022-08-28T11:53:42.885Z,69.80
2022-08-28T11:59:14.060Z,69.63
2022-08-28T12:04:42.681Z,69.38
2022-08-28T12:10:23.459Z,69.70
2022-08-28T12:15:44.985Z,69.02
2022-08-28T12:21:13.024Z,69.10
2022-08-28T12:26:38.674Z,69.11
2022-08-28T12:32:21.260Z,68.95
2022-08-28T12:37:58.894Z,68.54
2022-08-28T12:43:46.598Z,68.72
2022-08-28T12:49:37.087Z,68.20
2022-08-28T12:54:58.970Z,68.69
2022-08-28T13:00:26.169Z,68.15
2022-08-28T13:05:57.330Z,68.61
2022-08-28T13:11:20.951Z,68.50
2022-08-28T13:16:48.068Z,68.37
2022-08-28T13:22:38.961Z,68.28
2022-08-28T13:28:15.172Z,68.06
2022-08-28T13:33:36.082Z,68.10
2022-08-28T13:38:57.098Z,67.76
2022-08-28T13:44:27.077Z,67.87
2022-08-28T13:49:49.129Z,68.10
2022-08-28T13:55:10.151Z,68.00
2022-08-28T14:00:36.051Z,68.02
2022-08-28T14:05:57.064Z,67.87
2022-08-28T14:11:17.844Z,67.77
2022-08-28T14:16:39.974Z,67.91
2022-08-28T14:22:01.055Z,68.08
2022-08-28T14:27:22.311Z,68.00
2022-08-28T14:32:43.481Z,67.79
2022-08-28T14:38:04.612Z,67.64
2022-08-28T14:43:25.076Z,67.90
2022-08-28T14:48:46.107Z,67.70
2022-08-28T14:54:09.465Z,67.66
2022-08-28T14:59:32.350Z,67.59
2022-08-28T15:04:53.139Z,67.69
2022-08-28T15:10:13.995Z,67.58
2022-08-28T15:15:36.599Z,67.05
2022-08-28T15:20:58.359Z,67.27
2022-08-28T15:26:20.845Z,66.96
2022-08-28T15:31:44.543Z,67.46
2022-08-28T15:37:07.859Z,67.38
2022-08-28T15:42:29.879Z,67.58
2022-08-28T15:47:50.598Z,67.86
2022-08-28T15:53:11.435Z,67.48
2022-08-28T15:58:32.179Z,67.54
2022-08-28T16:03:53.468Z,67.52
2022-08-28T16:09:14.521Z,67.92
2022-08-28T16:14:35.408Z,68.15
2022-08-28T16:19:56.090Z,67.70
2022-08-28T16:25:17.000Z,67.97
2022-08-28T16:30:43.967Z,67.37
2022-08-28T16:36:08.540Z,67.63
2022-08-28T16:41:29.343Z,67.34
2022-08-28T16:46:54.355Z,67.53
2022-08-28T16:52:14.981Z,67.38
2022-08-28T16:57:36.429Z,67.59
2022-08-28T17:02:57.830Z,67.71
2022-08-28T17:08:18.824Z,67.52
2022-08-28T17:13:40.207Z,67.36
2022-08-28T17:19:01.201Z,67.46
2022-08-28T17:24:22.594Z,67.26
2022-08-28T17:29:44.141Z,67.07
2022-08-28T17:35:05.563Z,67.53
2022-08-28T17:40:27.353Z,67.46
2022-08-28T17:45:48.487Z,67.18
2022-08-28T17:51:09.282Z,67.23
2022-08-28T17:56:35.909Z,67.70
2022-08-28T18:01:56.873Z,67.94
2022-08-28T18:07:18.218Z,67.83
2022-08-28T18:12:41.284Z,67.90
2022-08-28T18:18:02.679Z,67.75
2022-08-28T18:23:23.560Z,67.83
2022-08-28T18:28:44.879Z,67.82
2022-08-28T18:34:08.603Z,68.00
2022-08-28T18:39:33.551Z,67.84
2022-08-28T18:44:54.264Z,68.15
2022-08-28T18:50:15.142Z,67.99
2022-08-28T18:55:37.575Z,67.85
2022-08-28T19:00:58.513Z,67.93
2022-08-28T19:06:19.034Z,67.67
2022-08-28T19:11:39.984Z,67.67
2022-08-28T19:17:01.146Z,67.70
2022-08-28T19:22:22.976Z,67.59
2022-08-28T19:27:44.678Z,67.78
2022-08-28T19:33:06.015Z,67.45
2022-08-28T19:38:30.787Z,67.73
2022-08-28T19:43:51.727Z,67.75
2022-08-28T19:49:13.998Z,67.52
2022-08-28T19:54:40.781Z,67.41
2022-08-28T20:00:02.501Z,67.36
2022-08-28T20:05:27.278Z,67.34
2022-08-28T20:10:47.902Z,67.50
2022-08-28T20:16:10.948Z,67.39
2022-08-28T20:21:37.302Z,67.30
2022-08-28T20:26:58.986Z,67.28
2022-08-28T20:32:20.147Z,66.93
2022-08-28T20:37:44.951Z,67.15
2022-08-28T20:43:06.980Z,66.87
2022-08-28T20:48:28.516Z,67.28
2022-08-28T20:53:52.295Z,67.17
2022-08-28T20:59:13.080Z,66.86
2022-08-28T21:04:37.028Z,66.85
2022-08-28T21:10:06.341Z,66.85
2022-08-28T21:15:29.063Z,66.79
2022-08-28T21:20:50.794Z,66.82
2022-08-28T21:26:12.082Z,67.06
2022-08-28T21:31:33.697Z,67.02
2022-08-28T21:36:54.479Z,66.81
2022-08-28T21:42:15.155Z,66.87
2022-08-28T21:47:35.928Z,66.94
2022-08-28T21:52:56.821Z,66.98
2022-08-28T21:58:18.650Z,66.90
2022-08-28T22:03:41.316Z,66.82
2022-08-28T22:09:02.631Z,66.80
2022-08-28T22:14:25.297Z,67.16
2022-08-28T22:19:46.772Z,67.00
2022-08-28T22:25:08.298Z,66.98
2022-08-28T22:30:29.541Z,67.09
2022-08-28T22:35:51.236Z,66.92
2022-08-28T22:41:12.826Z,67.31
2022-08-28T22:46:33.527Z,67.07
2022-08-28T22:51:54.259Z,66.70
2022-08-28T22:57:15.152Z,66.85
2022-08-28T23:02:35.809Z,66.51
2022-08-28T23:07:57.060Z,66.66
2022-08-28T23:13:19.557Z,66.63
2022-08-28T23:19:06.424Z,67.09
2022-08-28T23:24:21.166Z,66.91
2022-08-28T23:29:41.948Z,66.83
2022-08-28T23:35:02.808Z,66.81
2022-08-28T23:40:28.314Z,66.64
2022-08-28T23:45:50.555Z,66.77
2022-08-28T23:51:13.197Z,66.63
2022-08-28T23:56:34.980Z,66.98
